Fifty Lakes, Minnesota
Current Conditions -  °F | °C
As of 1:13 AM on Friday 19 Dec 2014 (Local Time) from KPWC Reporting Station
Light Snow Light Snow  
Wind Chill:   Ceiling: 6000
Heat Index: 18°   Visibility: 3mi
Dew Point: 16°   Wind: 7mph
Humidity: 93%   Direction: 150°SSE
Pressure: 30.23"   Gusts: NA
Location:  46.74°N, 94.09°W
Report Text: KPWC 190713Z AUTO 15006KT 3SM -SN SCT014 SCT030 OVC060 M08/M09 A3023 RMK AO2
Loading
Personal Weather Stations






























Interactive Weather Map New forecast layout! Learn more

10-Day Weather Forecast

Advertisements
Track Severe Weather on mobile